Time;durP1;ratioP1;P1;durP2;ratioP2;P2;SDS_P1;SDS_P2;PMS_P1;PMS_P2;Temp;Humidity;BMP_temperature;BMP_pressure;BME280_temperature;BME280_humidity;BME280_pressure;Samples;Min_cycle;Max_cycle;Signal;HPM_P1;HPM_P2
2022/11/13 00:00:56;;;;;;;122.43;46.90;;;6.30;99.90;;;;;;5009108;28;20077;-63
2022/11/13 00:03:22;;;;;;;119.32;46.25;;;6.30;99.90;;;;;;5009590;28;20158;-64
2022/11/13 00:05:47;;;;;;;114.60;45.30;;;6.30;99.90;;;;;;5008970;28;20447;-65
2022/11/13 00:08:13;;;;;;;127.90;41.25;;;6.30;99.90;;;;;;5009334;28;20105;-64
2022/11/13 00:10:39;;;;;;;125.22;42.75;;;6.10;99.90;;;;;;5008906;28;20061;-64
2022/11/13 00:13:05;;;;;;;160.15;44.50;;;6.00;99.90;;;;;;5009399;28;20034;-62
2022/11/13 00:15:31;;;;;;;121.50;44.90;;;5.90;99.90;;;;;;5009121;28;20026;-65
2022/11/13 00:18:01;;;;;;;120.03;43.83;;;5.80;99.90;;;;;;5009335;28;20033;-65
2022/11/13 00:20:26;;;;;;;101.13;41.75;;;5.80;99.90;;;;;;5013014;28;20566;-62
2022/11/13 00:22:52;;;;;;;95.57;41.83;;;5.80;99.90;;;;;;5010470;28;20117;-66
2022/11/13 00:25:18;;;;;;;98.85;42.15;;;5.80;99.90;;;;;;5012633;28;20504;-63
2022/11/13 00:27:43;;;;;;;113.68;40.17;;;5.80;99.90;;;;;;5012322;28;20381;-64
2022/11/13 00:30:09;;;;;;;113.95;39.78;;;5.70;99.90;;;;;;5012386;28;20038;-59
2022/11/13 00:32:36;;;;;;;112.43;38.92;;;5.70;99.90;;;;;;5012037;28;20132;-63
2022/11/13 00:35:03;;;;;;;114.78;44.33;;;5.60;99.90;;;;;;4998866;28;20038;-61
2022/11/13 00:37:28;;;;;;;120.67;39.73;;;5.60;99.90;;;;;;4993541;28;20026;-61
2022/11/13 00:39:54;;;;;;;113.10;42.50;;;5.60;99.90;;;;;;4993239;28;20467;-60
2022/11/13 00:42:19;;;;;;;105.70;42.33;;;5.50;99.90;;;;;;4975615;28;20026;-61
2022/11/13 00:44:45;;;;;;;105.20;40.67;;;5.50;99.90;;;;;;4993328;28;20041;-63
2022/11/13 00:47:11;;;;;;;111.50;42.25;;;5.50;99.90;;;;;;4993210;28;20030;-66
2022/11/13 00:49:36;;;;;;;100.90;42.75;;;5.60;99.90;;;;;;4993269;28;20448;-66
2022/11/13 00:52:02;;;;;;;97.32;41.90;;;5.60;99.90;;;;;;4993078;28;20030;-63
2022/11/13 00:54:28;;;;;;;102.30;42.67;;;5.70;99.90;;;;;;4975328;28;20548;-64
2022/11/13 00:56:54;;;;;;;101.55;40.63;;;5.70;99.90;;;;;;4992897;28;20057;-66
2022/11/13 00:59:19;;;;;;;99.25;40.90;;;5.80;99.90;;;;;;4975543;28;20382;-63
2022/11/13 01:01:45;;;;;;;98.65;41.22;;;5.80;99.90;;;;;;4993106;28;20027;-63
2022/11/13 01:04:10;;;;;;;103.68;41.85;;;5.70;99.90;;;;;;4993060;28;20022;-61
2022/11/13 01:06:36;;;;;;;109.22;42.03;;;5.80;99.90;;;;;;4993122;28;20169;-61
2022/11/13 01:09:02;;;;;;;102.30;40.20;;;5.80;99.90;;;;;;4992692;28;20457;-61
2022/11/13 01:11:29;;;;;;;97.93;41.45;;;5.80;99.90;;;;;;4992545;28;20101;-62
2022/11/13 01:13:55;;;;;;;96.30;41.75;;;5.90;99.90;;;;;;4992745;28;20482;-65
2022/11/13 01:16:23;;;;;;;99.18;40.90;;;5.80;99.90;;;;;;4992698;28;20042;-66
2022/11/13 01:18:52;;;;;;;104.85;40.67;;;5.80;99.90;;;;;;4992577;28;20389;-62
2022/11/13 01:21:21;;;;;;;108.70;40.78;;;5.80;99.90;;;;;;4974986;28;20037;-67
2022/11/13 01:23:47;;;;;;;93.28;39.20;;;5.70;99.90;;;;;;4974867;28;20378;-59
2022/11/13 01:26:15;;;;;;;107.38;39.45;;;5.70;99.90;;;;;;4992315;28;20094;-60
2022/11/13 01:28:42;;;;;;;107.35;41.10;;;5.60;99.90;;;;;;4992671;28;20041;-64
2022/11/13 01:31:11;;;;;;;101.57;41.08;;;5.70;99.90;;;;;;4992263;28;20030;-60
2022/11/13 01:33:37;;;;;;;96.25;41.65;;;5.60;99.90;;;;;;4992498;28;20054;-66
2022/11/13 01:36:06;;;;;;;114.40;42.00;;;5.60;99.90;;;;;;5010285;28;20052;-65
2022/11/13 01:38:32;;;;;;;110.03;41.55;;;5.60;99.90;;;;;;5011963;28;20096;-63
2022/11/13 01:40:58;;;;;;;98.85;40.45;;;5.70;99.90;;;;;;5011910;28;20033;-66
2022/11/13 01:43:28;;;;;;;110.95;41.22;;;5.60;99.90;;;;;;4994108;28;20034;-64
2022/11/13 01:45:57;;;;;;;99.95;42.13;;;5.70;99.90;;;;;;5011835;28;20470;-62
2022/11/13 01:48:24;;;;;;;105.40;42.47;;;5.60;99.90;;;;;;5011601;28;20042;-62
2022/11/13 01:50:50;;;;;;;128.68;39.40;;;5.70;99.90;;;;;;5008951;28;20065;-59
2022/11/13 01:53:15;;;;;;;118.00;41.67;;;5.60;99.90;;;;;;5011085;28;20065;-62
2022/11/13 01:55:41;;;;;;;99.30;42.10;;;5.60;99.90;;;;;;5011522;28;20030;-65
2022/11/13 01:58:09;;;;;;;121.85;42.25;;;5.60;99.90;;;;;;5011269;28;20026;-66
2022/11/13 02:00:34;;;;;;;107.72;42.63;;;5.60;99.90;;;;;;5011201;28;20038;-65
2022/11/13 02:03:00;;;;;;;113.43;42.95;;;5.60;99.90;;;;;;5011180;28;20061;-65
2022/11/13 02:05:26;;;;;;;101.97;43.42;;;5.60;99.90;;;;;;5010967;28;20028;-63
2022/11/13 02:07:52;;;;;;;105.10;43.97;;;5.70;99.90;;;;;;5010875;28;20122;-64
2022/11/13 02:10:17;;;;;;;116.38;41.10;;;5.70;99.90;;;;;;5010928;28;20112;-64
2022/11/13 02:12:50;;;;;;;105.80;42.47;;;5.80;99.90;;;;;;5010594;28;20153;-64
2022/11/13 02:15:22;;;;;;;117.25;44.67;;;5.80;99.90;;;;;;5010786;28;20028;-60
2022/11/13 02:17:52;;;;;;;105.22;41.00;;;5.70;99.90;;;;;;5010884;28;20022;-60
2022/11/13 02:20:31;;;;;;;116.43;43.83;;;5.70;99.90;;;;;;5011069;28;20053;-64
2022/11/13 02:23:22;;;;;;;106.60;41.65;;;5.80;99.90;;;;;;5010580;28;20657;-62
2022/11/13 02:25:51;;;;;;;101.43;41.45;;;5.80;99.90;;;;;;5010793;28;20037;-64
2022/11/13 02:28:16;;;;;;;105.43;41.05;;;5.80;99.90;;;;;;5010836;28;20076;-60
2022/11/13 02:30:42;;;;;;;108.05;44.03;;;5.80;99.90;;;;;;4992991;28;20062;-59
2022/11/13 02:33:22;;;;;;;98.15;40.08;;;5.80;99.90;;;;;;5010641;28;20382;-60
2022/11/13 02:35:47;;;;;;;101.25;40.83;;;5.80;99.90;;;;;;5010637;28;20771;-60
2022/11/13 02:38:13;;;;;;;116.57;40.92;;;5.80;99.90;;;;;;5010450;28;20030;-59
2022/11/13 02:40:38;;;;;;;96.50;41.95;;;5.70;99.90;;;;;;5010492;28;20144;-60
2022/11/13 02:43:04;;;;;;;98.63;39.65;;;5.70;99.90;;;;;;5010228;28;20478;-61
2022/11/13 02:45:30;;;;;;;119.47;40.63;;;5.80;99.90;;;;;;5010120;28;20544;-62
2022/11/13 02:47:58;;;;;;;95.53;38.78;;;5.70;99.90;;;;;;4993890;28;20037;-65
2022/11/13 02:50:23;;;;;;;94.97;37.05;;;5.70;99.90;;;;;;4990509;28;20077;-61
2022/11/13 02:52:49;;;;;;;163.95;38.38;;;5.70;99.90;;;;;;4990482;28;20577;-63
2022/11/13 02:55:15;;;;;;;91.95;37.88;;;5.70;99.90;;;;;;4990611;28;20058;-65
2022/11/13 02:57:40;;;;;;;109.50;38.80;;;5.60;99.90;;;;;;4990515;28;20541;-64
2022/11/13 03:00:07;;;;;;;99.00;38.30;;;5.60;99.90;;;;;;4990593;28;20109;-63
2022/11/13 03:02:32;;;;;;;118.32;38.30;;;5.40;99.90;;;;;;4990554;28;20026;-65
2022/11/13 03:04:58;;;;;;;122.93;42.78;;;5.30;99.90;;;;;;4990591;28;20557;-64
2022/11/13 03:07:23;;;;;;;123.57;46.60;;;5.30;99.90;;;;;;4990532;28;20517;-61
2022/11/13 03:09:49;;;;;;;113.55;44.47;;;5.20;99.90;;;;;;4990594;28;20038;-59
2022/11/13 03:12:15;;;;;;;117.60;46.63;;;5.30;99.90;;;;;;4990154;28;20050;-58
2022/11/13 03:14:40;;;;;;;132.00;45.28;;;5.20;99.90;;;;;;4990081;28;20054;-59
2022/11/13 03:17:06;;;;;;;117.82;45.85;;;5.20;99.90;;;;;;4990535;28;20037;-60
2022/11/13 03:19:32;;;;;;;109.30;45.30;;;5.10;99.90;;;;;;4990229;28;20156;-61
2022/11/13 03:21:58;;;;;;;133.27;44.50;;;5.10;99.90;;;;;;4990197;28;20038;-63
2022/11/13 03:24:23;;;;;;;115.45;44.65;;;5.10;99.90;;;;;;4990213;28;20138;-64
2022/11/13 03:26:49;;;;;;;131.52;40.75;;;5.10;99.90;;;;;;4990257;28;20041;-66
2022/11/13 03:29:14;;;;;;;113.10;43.88;;;5.10;99.90;;;;;;4989891;28;20148;-65
2022/11/13 03:31:40;;;;;;;112.38;42.05;;;5.00;99.90;;;;;;4990156;28;20042;-63
2022/11/13 03:34:06;;;;;;;103.05;39.22;;;4.90;99.90;;;;;;4990157;28;20034;-61
2022/11/13 03:36:32;;;;;;;111.88;40.40;;;4.90;99.90;;;;;;4989865;28;20117;-59
2022/11/13 03:38:58;;;;;;;109.88;41.20;;;4.90;99.90;;;;;;4990081;28;20027;-58
2022/11/13 03:41:23;;;;;;;109.03;42.53;;;4.90;99.90;;;;;;4989979;28;20076;-59
2022/11/13 03:43:49;;;;;;;109.65;41.40;;;4.90;99.90;;;;;;4989833;28;20027;-59
2022/11/13 03:46:15;;;;;;;99.60;41.15;;;4.90;99.90;;;;;;4975293;28;20030;-58
2022/11/13 03:48:40;;;;;;;98.80;40.95;;;4.90;99.90;;;;;;5009893;28;20068;-59
2022/11/13 03:51:07;;;;;;;100.63;41.72;;;5.00;99.90;;;;;;5009841;28;20030;-58
2022/11/13 03:53:32;;;;;;;122.15;44.75;;;5.00;99.90;;;;;;4992598;28;20444;-59
2022/11/13 03:55:58;;;;;;;108.72;46.40;;;5.10;99.90;;;;;;5013574;28;20038;-58
2022/11/13 03:58:24;;;;;;;109.28;45.40;;;5.20;99.90;;;;;;5013336;28;20029;-59
2022/11/13 04:00:52;;;;;;;119.30;49.42;;;5.30;99.90;;;;;;5013233;28;20026;-62
2022/11/13 04:03:17;;;;;;;129.23;51.00;;;5.30;99.90;;;;;;5013343;28;20018;-58
2022/11/13 04:05:43;;;;;;;125.57;49.22;;;5.50;99.90;;;;;;4995552;28;20033;-59
2022/11/13 04:08:09;;;;;;;123.10;48.65;;;5.50;99.90;;;;;;5013131;28;20053;-62
2022/11/13 04:10:34;;;;;;;113.90;44.45;;;5.60;99.90;;;;;;5013123;28;20362;-64
2022/11/13 04:13:00;;;;;;;111.03;43.97;;;5.50;99.90;;;;;;5013089;28;20505;-64
2022/11/13 04:15:26;;;;;;;86.55;38.20;;;5.60;99.90;;;;;;5013221;28;20052;-64
2022/11/13 04:17:51;;;;;;;89.85;38.92;;;5.60;99.90;;;;;;5013054;28;20053;-64
2022/11/13 04:20:17;;;;;;;79.00;35.70;;;5.60;99.90;;;;;;5013027;28;20061;-64
2022/11/13 04:22:43;;;;;;;76.60;35.75;;;5.60;99.90;;;;;;5012903;28;20026;-65
2022/11/13 04:25:08;;;;;;;82.72;36.78;;;5.60;99.90;;;;;;5012759;28;20392;-58
2022/11/13 04:27:35;;;;;;;74.07;35.78;;;5.70;99.90;;;;;;5012994;28;20029;-58
2022/11/13 04:30:02;;;;;;;85.15;36.03;;;5.70;99.90;;;;;;5012727;28;20453;-60
2022/11/13 04:32:28;;;;;;;90.68;37.38;;;5.70;99.90;;;;;;5013032;28;20405;-65
2022/11/13 04:34:54;;;;;;;84.63;35.40;;;5.80;99.90;;;;;;5012953;28;20026;-60
2022/11/13 04:37:19;;;;;;;85.80;37.97;;;5.70;99.90;;;;;;5012887;28;20030;-60
2022/11/13 04:39:45;;;;;;;77.13;35.53;;;5.70;99.90;;;;;;5012894;28;20104;-59
2022/11/13 04:44:55;;;;;;;101.95;39.65;;;5.80;99.90;;;;;;5013010;28;20381;-59
2022/11/13 04:47:21;;;;;;;86.55;38.63;;;5.80;99.90;;;;;;5001338;28;20026;-61
2022/11/13 04:49:47;;;;;;;93.07;40.03;;;5.80;99.90;;;;;;4992974;28;20081;-60
2022/11/13 04:52:13;;;;;;;91.35;37.97;;;5.80;99.90;;;;;;4993132;28;20122;-63
2022/11/13 04:54:38;;;;;;;97.32;41.72;;;5.80;99.90;;;;;;4992723;28;20466;-62
2022/11/13 04:57:04;;;;;;;91.88;41.55;;;5.90;99.90;;;;;;4993029;28;20065;-63
2022/11/13 04:59:30;;;;;;;95.60;41.85;;;5.80;99.90;;;;;;4992755;28;20393;-62
2022/11/13 05:01:56;;;;;;;92.80;39.58;;;5.80;99.90;;;;;;4992746;28;20482;-62
2022/11/13 05:04:21;;;;;;;105.07;43.50;;;5.80;99.90;;;;;;4992354;28;20031;-62
2022/11/13 05:06:47;;;;;;;95.95;40.72;;;5.90;99.90;;;;;;4992780;28;20520;-62
2022/11/13 05:09:13;;;;;;;99.63;41.75;;;5.80;99.90;;;;;;4992498;28;20485;-64
2022/11/13 05:11:39;;;;;;;104.88;40.92;;;5.80;99.90;;;;;;4992632;28;20053;-63
2022/11/13 05:14:05;;;;;;;102.13;42.45;;;5.80;99.90;;;;;;4992755;28;20030;-61
2022/11/13 05:16:33;;;;;;;97.25;41.80;;;5.80;99.90;;;;;;4993047;28;20038;-64
2022/11/13 05:18:59;;;;;;;121.15;44.10;;;5.90;99.90;;;;;;4992572;28;20092;-63
2022/11/13 05:21:24;;;;;;;107.40;42.45;;;5.90;99.90;;;;;;4974956;28;20027;-63
2022/11/13 05:23:50;;;;;;;126.18;46.55;;;5.80;99.90;;;;;;4992146;28;20490;-64
2022/11/13 05:26:17;;;;;;;119.72;42.75;;;5.80;99.90;;;;;;4992506;28;20045;-62
2022/11/13 05:28:42;;;;;;;133.15;47.05;;;5.70;99.90;;;;;;4992428;28;20026;-59
2022/11/13 05:31:11;;;;;;;126.32;46.35;;;5.70;99.90;;;;;;4992392;28;20266;-61
2022/11/13 05:33:38;;;;;;;141.45;48.45;;;5.70;99.90;;;;;;5000022;28;20172;-62
2022/11/13 05:36:07;;;;;;;140.05;48.95;;;5.70;99.90;;;;;;5011920;28;20504;-58
2022/11/13 05:38:34;;;;;;;138.63;48.05;;;5.60;99.90;;;;;;5011537;28;20038;-64
2022/11/13 05:41:02;;;;;;;152.57;50.65;;;5.60;99.90;;;;;;5011683;28;20492;-59
2022/11/13 05:43:28;;;;;;;161.02;52.45;;;5.60;99.90;;;;;;5011285;28;20065;-62
2022/11/13 05:46:01;;;;;;;164.15;50.70;;;5.60;99.90;;;;;;5011720;28;20063;-61
2022/11/13 05:48:27;;;;;;;155.77;52.80;;;5.50;99.90;;;;;;4992703;28;20027;-56
2022/11/13 05:50:53;;;;;;;158.30;52.63;;;5.60;99.90;;;;;;4974658;28;20061;-60
2022/11/13 05:53:19;;;;;;;173.40;54.63;;;5.60;99.90;;;;;;4991667;28;20045;-59
2022/11/13 05:55:44;;;;;;;177.15;55.47;;;5.70;99.90;;;;;;4991955;28;20034;-58
2022/11/13 05:58:11;;;;;;;177.63;55.55;;;5.70;99.90;;;;;;4992053;28;20022;-58
2022/11/13 06:00:37;;;;;;;163.13;54.97;;;5.80;99.90;;;;;;4991954;28;20030;-61
2022/11/13 06:03:02;;;;;;;178.45;53.13;;;5.80;99.90;;;;;;4991699;28;20508;-62
2022/11/13 06:05:28;;;;;;;183.27;55.10;;;5.80;99.90;;;;;;4991465;28;20062;-64
2022/11/13 06:07:54;;;;;;;172.77;49.55;;;5.80;99.90;;;;;;4991930;28;20076;-61
2022/11/13 06:10:19;;;;;;;164.88;48.50;;;5.80;99.90;;;;;;4991529;28;20042;-60
2022/11/13 06:12:45;;;;;;;127.55;42.05;;;5.80;99.90;;;;;;4991160;28;20161;-59
2022/11/13 06:15:10;;;;;;;124.60;39.63;;;5.70;99.90;;;;;;4991485;28;20029;-58
2022/11/13 06:17:36;;;;;;;137.80;37.75;;;5.70;99.90;;;;;;4990663;28;20375;-60
2022/11/13 06:20:02;;;;;;;147.52;39.10;;;5.70;99.90;;;;;;4991395;28;20189;-64
2022/11/13 06:22:28;;;;;;;129.65;38.65;;;5.60;99.90;;;;;;5008865;28;20048;-59
2022/11/13 06:24:54;;;;;;;114.03;38.40;;;5.60;99.90;;;;;;5010706;28;20557;-62
2022/11/13 06:27:19;;;;;;;112.72;39.15;;;5.70;99.90;;;;;;5010845;28;20018;-64
2022/11/13 06:29:45;;;;;;;118.45;38.20;;;5.60;99.90;;;;;;5010660;28;20081;-62
2022/11/13 06:32:11;;;;;;;117.53;37.17;;;5.70;99.90;;;;;;5010857;28;20018;-62
2022/11/13 06:34:37;;;;;;;100.57;37.15;;;5.60;99.90;;;;;;5010596;28;20040;-65
2022/11/13 06:37:02;;;;;;;117.47;39.47;;;5.70;99.90;;;;;;5010626;28;20030;-63
2022/11/13 06:39:28;;;;;;;101.80;37.33;;;5.80;99.90;;;;;;5010626;28;20033;-61
2022/11/13 06:41:53;;;;;;;107.32;34.92;;;5.80;99.90;;;;;;5010590;28;20056;-57
2022/11/13 06:44:19;;;;;;;96.20;34.65;;;5.70;99.90;;;;;;4993034;28;20381;-58
2022/11/13 06:46:45;;;;;;;96.70;35.10;;;5.70;99.90;;;;;;5007034;28;20479;-58
2022/11/13 06:49:10;;;;;;;106.07;36.47;;;5.70;99.90;;;;;;4990949;28;20023;-62
2022/11/13 06:51:36;;;;;;;105.65;36.88;;;5.60;99.90;;;;;;4991137;28;20150;-62
2022/11/13 06:54:01;;;;;;;112.68;33.25;;;5.60;99.90;;;;;;4990518;28;20695;-64
2022/11/13 06:56:27;;;;;;;107.50;37.15;;;5.60;99.90;;;;;;4990761;28;20018;-63
2022/11/13 06:58:54;;;;;;;113.18;37.08;;;5.50;99.90;;;;;;4990542;28;20030;-60
2022/11/13 07:01:21;;;;;;;112.22;36.33;;;5.70;99.90;;;;;;4990770;28;20170;-65
2022/11/13 07:03:47;;;;;;;112.47;37.13;;;5.60;99.90;;;;;;4990416;28;20034;-66
2022/11/13 07:06:16;;;;;;;119.90;37.28;;;5.60;99.90;;;;;;4990858;28;20034;-63
2022/11/13 07:08:42;;;;;;;109.68;38.42;;;5.70;99.90;;;;;;4990570;28;20038;-63
2022/11/13 07:11:15;;;;;;;107.88;37.58;;;5.70;99.90;;;;;;4990395;28;20046;-61
2022/11/13 07:13:41;;;;;;;110.57;37.50;;;5.70;99.90;;;;;;4990620;28;20536;-58
2022/11/13 07:16:10;;;;;;;132.85;39.47;;;5.70;99.90;;;;;;4990328;28;20040;-58
2022/11/13 07:18:36;;;;;;;112.45;40.78;;;5.70;99.90;;;;;;4990598;28;20068;-58
2022/11/13 07:21:08;;;;;;;118.63;39.65;;;5.70;99.90;;;;;;4990516;28;20026;-56
2022/11/13 07:23:35;;;;;;;121.78;41.90;;;5.70;99.90;;;;;;4990321;28;20038;-61
2022/11/13 07:26:03;;;;;;;112.60;41.78;;;5.70;99.90;;;;;;4990227;28;20444;-57
2022/11/13 07:28:29;;;;;;;124.53;44.88;;;5.70;99.90;;;;;;4990051;28;20066;-63
2022/11/13 07:30:57;;;;;;;138.32;44.70;;;5.90;99.90;;;;;;4990067;28;20066;-59
2022/11/13 07:33:23;;;;;;;123.30;41.22;;;5.90;99.90;;;;;;4990526;28;20121;-59
2022/11/13 07:35:49;;;;;;;127.82;42.40;;;6.00;99.90;;;;;;4990403;28;20118;-60
2022/11/13 07:38:14;;;;;;;120.85;41.40;;;6.10;99.90;;;;;;4995883;28;20062;-58
2022/11/13 07:40:40;;;;;;;119.80;41.80;;;6.00;99.90;;;;;;4998680;28;20418;-58
2022/11/13 07:43:06;;;;;;;128.45;44.20;;;6.10;99.90;;;;;;4999478;28;20022;-58
2022/11/13 07:45:31;;;;;;;127.15;43.38;;;6.20;99.90;;;;;;4997712;28;20034;-58
2022/11/13 07:48:02;;;;;;;122.80;41.83;;;6.20;99.90;;;;;;4999068;28;20069;-61
2022/11/13 07:50:29;;;;;;;132.73;43.72;;;6.20;99.90;;;;;;4999711;28;20046;-59
2022/11/13 07:52:57;;;;;;;137.88;42.40;;;6.20;99.90;;;;;;4980834;28;20445;-58
2022/11/13 07:55:24;;;;;;;116.50;39.17;;;6.00;99.90;;;;;;4980673;28;20092;-59
2022/11/13 07:57:50;;;;;;;123.68;42.60;;;6.00;99.90;;;;;;4999812;28;20096;-61
2022/11/13 08:00:16;;;;;;;126.15;42.42;;;6.00;99.90;;;;;;4998250;28;20438;-61
2022/11/13 08:02:42;;;;;;;109.68;39.97;;;5.90;99.90;;;;;;4993244;28;20026;-61
2022/11/13 08:05:07;;;;;;;117.97;40.30;;;6.00;99.90;;;;;;4971260;28;20405;-60
2022/11/13 08:07:33;;;;;;;129.60;44.42;;;6.00;99.90;;;;;;4989026;28;20101;-61
2022/11/13 08:09:59;;;;;;;112.38;39.60;;;6.00;99.90;;;;;;4988707;28;20034;-61
2022/11/13 08:12:24;;;;;;;116.18;42.97;;;6.00;99.90;;;;;;4988529;28;20545;-62
2022/11/13 08:14:50;;;;;;;135.15;46.33;;;6.10;99.90;;;;;;4988887;28;20466;-62
2022/11/13 08:17:16;;;;;;;139.48;46.95;;;6.00;99.90;;;;;;4991999;28;20026;-60
2022/11/13 08:19:41;;;;;;;135.82;45.80;;;6.00;99.90;;;;;;5005981;28;20022;-59
2022/11/13 08:22:07;;;;;;;128.25;45.70;;;6.00;99.90;;;;;;4988388;28;20026;-59
2022/11/13 08:24:32;;;;;;;111.60;37.97;;;6.10;99.90;;;;;;4973815;28;20027;-59
2022/11/13 08:26:58;;;;;;;114.45;40.78;;;6.10;99.90;;;;;;4988935;28;20029;-59
2022/11/13 08:29:24;;;;;;;102.75;36.83;;;6.10;99.90;;;;;;4988938;28;20093;-63
2022/11/13 08:31:49;;;;;;;91.25;34.97;;;6.00;99.90;;;;;;4988683;28;20553;-63
2022/11/13 08:34:15;;;;;;;109.22;39.58;;;6.10;99.90;;;;;;4988929;28;20034;-60
2022/11/13 08:36:40;;;;;;;90.07;35.63;;;6.20;99.90;;;;;;4994978;28;20029;-59
2022/11/13 08:39:07;;;;;;;87.10;35.13;;;6.20;99.90;;;;;;4988417;28;20101;-56
2022/11/13 08:41:33;;;;;;;109.32;40.75;;;6.20;99.90;;;;;;5008985;28;20405;-57
2022/11/13 08:43:59;;;;;;;98.82;38.97;;;6.30;99.90;;;;;;5009047;28;20032;-62
2022/11/13 08:46:24;;;;;;;90.78;38.22;;;6.40;99.90;;;;;;5009233;28;20499;-63
2022/11/13 08:48:50;;;;;;;104.50;41.80;;;6.40;99.90;;;;;;5008538;28;20095;-63
2022/11/13 08:51:17;;;;;;;103.60;43.28;;;6.40;99.90;;;;;;5009154;28;20045;-61
2022/11/13 08:53:42;;;;;;;94.53;39.10;;;6.40;99.90;;;;;;5008773;28;20017;-60
2022/11/13 08:56:08;;;;;;;110.07;46.20;;;6.40;99.90;;;;;;5002693;28;20753;-62
2022/11/13 08:58:33;;;;;;;114.43;44.28;;;6.30;99.90;;;;;;5000292;28;20126;-60
2022/11/13 09:01:00;;;;;;;109.45;43.65;;;6.30;99.90;;;;;;5001897;28;20022;-60
2022/11/13 09:03:26;;;;;;;107.45;40.83;;;6.30;99.90;;;;;;5005505;28;20061;-62
2022/11/13 09:05:51;;;;;;;110.50;40.53;;;6.40;99.90;;;;;;5006059;28;20069;-61
2022/11/13 09:08:17;;;;;;;112.30;44.17;;;6.30;99.90;;;;;;5000419;28;20054;-62
2022/11/13 09:10:43;;;;;;;110.88;39.25;;;6.40;99.90;;;;;;5001763;28;20121;-62
2022/11/13 09:13:10;;;;;;;101.88;40.58;;;6.50;99.90;;;;;;5012423;28;20034;-61
2022/11/13 09:15:37;;;;;;;106.70;42.30;;;6.50;99.90;;;;;;5012395;28;20592;-59
2022/11/13 09:18:04;;;;;;;109.60;42.13;;;6.60;99.90;;;;;;5012251;28;20483;-57
2022/11/13 09:20:32;;;;;;;88.55;39.75;;;6.70;99.90;;;;;;5012557;28;20374;-59
2022/11/13 09:22:59;;;;;;;104.70;45.90;;;6.80;99.90;;;;;;5012340;28;20118;-61
2022/11/13 09:25:25;;;;;;;84.55;39.08;;;6.80;99.90;;;;;;5012273;28;20496;-56
2022/11/13 09:27:53;;;;;;;86.75;42.08;;;6.90;99.90;;;;;;4994805;28;20022;-58
2022/11/13 09:30:19;;;;;;;82.78;38.50;;;6.90;99.90;;;;;;5012289;28;20068;-59
2022/11/13 09:32:45;;;;;;;91.32;45.03;;;7.00;99.90;;;;;;5012356;28;20066;-59
2022/11/13 09:35:10;;;;;;;95.95;43.55;;;7.00;99.90;;;;;;5012384;28;20026;-60
2022/11/13 09:37:36;;;;;;;87.47;39.40;;;7.40;99.90;;;;;;5011709;28;20465;-59
2022/11/13 09:40:02;;;;;;;90.78;39.92;;;7.60;99.90;;;;;;5011676;28;20033;-59
2022/11/13 09:42:30;;;;;;;77.55;34.03;;;7.70;99.90;;;;;;5011735;28;20379;-59
2022/11/13 09:45:06;;;;;;;85.35;37.08;;;7.80;99.90;;;;;;5011712;28;20116;-59
2022/11/13 09:47:39;;;;;;;82.82;39.03;;;7.80;99.90;;;;;;5011684;28;20030;-62
2022/11/13 09:50:21;;;;;;;87.60;39.08;;;7.70;99.90;;;;;;5011241;28;20172;-63
2022/11/13 09:52:48;;;;;;;86.75;40.35;;;7.80;99.90;;;;;;5010984;28;20381;-58
2022/11/13 09:55:18;;;;;;;83.95;37.22;;;7.80;99.90;;;;;;5011255;28;20061;-63
2022/11/13 09:58:02;;;;;;;99.55;45.20;;;7.80;99.90;;;;;;5011352;28;20125;-60
2022/11/13 10:00:29;;;;;;;98.35;45.50;;;7.80;99.90;;;;;;5011232;28;20111;-61
2022/11/13 10:03:29;;;;;;;106.75;45.65;;;7.80;99.90;;;;;;4993339;28;20492;-60
2022/11/13 10:06:04;;;;;;;107.15;47.55;;;7.80;99.90;;;;;;5011206;28;20036;-58
2022/11/13 10:08:51;;;;;;;96.15;42.85;;;7.90;99.90;;;;;;4992777;28;20022;-60
2022/11/13 10:11:40;;;;;;;93.90;45.03;;;8.00;99.90;;;;;;5003845;28;20065;-61
2022/11/13 10:14:41;;;;;;;96.80;46.25;;;8.20;99.90;;;;;;4991432;28;20031;-63
2022/11/13 10:17:25;;;;;;;100.53;47.83;;;8.60;99.90;;;;;;4987242;28;20070;-62
2022/11/13 10:20:00;;;;;;;97.95;44.78;;;8.60;99.90;;;;;;4989703;28;20120;-64
2022/11/13 10:22:37;;;;;;;98.15;43.83;;;8.60;99.90;;;;;;5006774;28;20418;-61
2022/11/13 10:25:34;;;;;;;86.28;40.72;;;8.60;99.90;;;;;;5006685;28;20045;-61
2022/11/13 10:28:08;;;;;;;89.55;41.58;;;8.90;99.90;;;;;;4994667;28;20109;-62
2022/11/13 10:30:33;;;;;;;82.00;39.17;;;9.30;99.90;;;;;;5010713;28;20124;-63
2022/11/13 10:33:07;;;;;;;74.13;37.65;;;9.60;99.90;;;;;;4993224;28;20110;-62
2022/11/13 10:35:59;;;;;;;74.75;38.75;;;9.70;99.90;;;;;;5010892;28;20088;-62
2022/11/13 10:38:49;;;;;;;78.25;38.28;;;10.40;99.90;;;;;;5010418;28;20034;-62
2022/11/13 10:41:19;;;;;;;70.95;35.90;;;11.00;99.90;;;;;;5008774;28;20052;-61
2022/11/13 10:43:51;;;;;;;69.80;36.15;;;11.20;99.90;;;;;;5008843;28;20041;-61
2022/11/13 10:46:23;;;;;;;74.38;37.95;;;11.20;99.90;;;;;;5009040;28;20049;-60
2022/11/13 10:48:49;;;;;;;72.88;34.50;;;11.40;99.90;;;;;;4992051;28;20022;-61
2022/11/13 10:51:25;;;;;;;59.70;33.72;;;11.20;99.90;;;;;;5010127;28;20056;-61
2022/11/13 10:53:51;;;;;;;64.93;34.65;;;11.50;99.90;;;;;;5010088;28;20057;-60
2022/11/13 10:56:34;;;;;;;64.10;34.10;;;11.70;99.90;;;;;;4992619;28;20030;-61
2022/11/13 10:59:10;;;;;;;60.72;33.53;;;11.70;99.90;;;;;;5010301;28;20033;-61
2022/11/13 11:01:36;;;;;;;60.13;33.45;;;12.30;99.90;;;;;;5010260;28;20469;-62
2022/11/13 11:04:04;;;;;;;59.97;33.50;;;12.70;99.90;;;;;;5009899;28;20109;-62
2022/11/13 11:06:35;;;;;;;61.38;31.95;;;12.80;99.90;;;;;;5010308;28;20029;-61
2022/11/13 11:09:24;;;;;;;58.95;32.22;;;13.20;99.90;;;;;;5010143;28;20045;-62
2022/11/13 11:12:15;;;;;;;62.13;32.35;;;13.60;99.90;;;;;;4999434;28;20145;-60
2022/11/13 11:15:00;;;;;;;58.35;31.58;;;13.00;99.90;;;;;;4990808;28;20464;-62
2022/11/13 11:17:52;;;;;;;62.65;32.22;;;13.00;99.90;;;;;;4990789;28;20030;-62
2022/11/13 11:20:27;;;;;;;64.90;33.17;;;13.30;99.90;;;;;;4990470;28;20069;-61
2022/11/13 11:23:14;;;;;;;62.92;32.17;;;13.00;99.90;;;;;;4991027;28;20022;-61
2022/11/13 11:25:55;;;;;;;67.32;36.63;;;13.10;99.90;;;;;;5001616;28;20382;-62
2022/11/13 11:28:52;;;;;;;70.63;36.60;;;13.20;99.90;;;;;;5008339;28;20057;-60
2022/11/13 11:31:57;;;;;;;62.30;34.40;;;13.10;99.90;;;;;;4989698;28;20030;-62
2022/11/13 11:34:44;;;;;;;61.88;33.90;;;13.00;99.90;;;;;;5008370;28;20096;-62
2022/11/13 11:37:17;;;;;;;65.90;36.00;;;13.20;99.90;;;;;;5008151;28;20509;-63
2022/11/13 11:39:54;;;;;;;64.35;35.60;;;13.30;99.90;;;;;;5008749;28;20025;-62
2022/11/13 11:42:31;;;;;;;69.57;37.97;;;13.30;99.90;;;;;;5009411;28;20051;-61
2022/11/13 11:45:03;;;;;;;72.07;36.92;;;13.40;99.90;;;;;;5008282;28;20269;-62
2022/11/13 11:47:29;;;;;;;75.57;37.88;;;13.20;99.90;;;;;;5007263;28;20044;-62
2022/11/13 11:49:55;;;;;;;67.35;37.50;;;13.20;99.90;;;;;;5007326;28;20026;-64
2022/11/13 11:52:45;;;;;;;70.47;38.60;;;13.30;99.90;;;;;;4989648;28;20033;-62
2022/11/13 11:55:28;;;;;;;81.32;41.38;;;13.30;99.90;;;;;;5008416;28;20079;-62
2022/11/13 11:58:12;;;;;;;75.22;39.70;;;13.20;99.90;;;;;;5008236;28;20615;-61
2022/11/13 12:00:43;;;;;;;73.55;38.45;;;13.10;99.90;;;;;;5008882;28;20402;-61
2022/11/13 12:03:37;;;;;;;66.22;38.35;;;13.00;99.90;;;;;;5009626;28;20026;-62
2022/11/13 12:06:36;;;;;;;70.88;37.55;;;13.30;99.90;;;;;;5010025;28;20064;-62
2022/11/13 12:09:11;;;;;;;78.60;40.05;;;13.30;99.90;;;;;;4992132;28;20033;-64
2022/11/13 12:11:47;;;;;;;74.20;38.63;;;13.20;99.90;;;;;;5003274;28;20054;-63
2022/11/13 12:14:55;;;;;;;71.20;39.45;;;13.40;99.90;;;;;;4990710;28;20034;-62
2022/11/13 12:17:36;;;;;;;68.07;37.35;;;13.40;99.90;;;;;;4993773;28;20428;-61
2022/11/13 12:20:43;;;;;;;66.85;38.03;;;13.80;99.90;;;;;;4993720;28;20097;-63
2022/11/13 12:23:20;;;;;;;71.13;38.17;;;15.80;99.90;;;;;;4976823;28;20725;-64
2022/11/13 12:25:51;;;;;;;72.95;39.92;;;17.00;99.00;;;;;;4993638;28;20534;-63
2022/11/13 12:28:39;;;;;;;76.45;40.70;;;17.10;95.90;;;;;;4976192;28;20502;-63
2022/11/13 12:31:49;;;;;;;71.60;41.65;;;16.60;96.40;;;;;;4946107;28;20043;-65
2022/11/13 12:34:38;;;;;;;73.72;38.70;;;16.20;97.80;;;;;;5009011;28;20042;-63
2022/11/13 12:37:37;;;;;;;78.20;40.72;;;15.20;99.70;;;;;;5012811;28;20041;-63
2022/11/13 12:40:47;;;;;;;72.60;39.28;;;14.20;99.90;;;;;;5000483;28;20036;-63
2022/11/13 12:43:31;;;;;;;;;;;14.00;99.90;;;;;;5004757;28;20034;-64
2022/11/13 12:46:08;;;;;;;79.13;41.13;;;13.70;99.90;;;;;;5013369;28;19905;-63